Thunder radar more information blitzortung!


Radar de pluja more information rain snow radar


Visita la nostra xarxa de llocs de meteo:

Template documentation
and downloads

And another site



No particular awareness of the weather is required.    There are no Weather-warnings

Pagina Historial Weather Underground text

Diari Resum Novembre 10, 2017 Unitats:  Imperial    Mètric   Tant
« Previous Dia
SegĂźent Dia »
Diari Setmana Mensual Anual Personalitzada
  Maxima: Minima: Media:
Temperatura: 59 °F 38.8 °F 50.7 °F
Punt de rosada: 41.2 °F 29.1 °F 34.9 °F
Humitat: 68 % 47 % 55 %
Wind Speed: 6.9 mph 0 mph 2.1 mph
RĂ fegues de vent: 7 mph - -
Vent:- - SSE
Pression baro: 30.3 in 30.2 in -
Precipitacions: 0 in    
Historical Graphs
 
 
Dades de taula per Novembre 10, 2017
Temps Temperatura Punt de rosada Pression baro Vent Wind Speed RĂ fegues de vent Humitat Rainfall Rate (Hourly)
00:04 41.2 °F 31.5 °F 30.3 in Calm     68 % 0 in
00:05 39.7 °F 30 °F 30.3 in NNE 1 mph 2 mph 68 % 0 in
00:15 39.7 °F 30 °F 30.3 in NNE 2 mph 3 mph 68 % 0 in
00:25 39.6 °F 29.8 °F 30.3 in NNE 1 mph 2 mph 68 % 0 in
00:35 39.4 °F 29.3 °F 30.3 in NW 1 mph 1 mph 67 % 0 in
00:45 39.4 °F 29.7 °F 30.3 in WNW 1 mph 1 mph 68 % 0 in
00:55 39.2 °F 29.5 °F 30.3 in NNW 1 mph 2 mph 68 % 0 in
01:05 39.4 °F 29.7 °F 30.3 in NNW 1 mph 4 mph 68 % 0 in
01:15 39.4 °F 29.7 °F 30.3 in North 2 mph 3 mph 68 % 0 in
01:25 39 °F 29.3 °F 30.3 in North 1 mph 3 mph 68 % 0 in
01:35 38.8 °F 29.1 °F 30.3 in North 1 mph 1 mph 68 % 0 in
01:45 38.8 °F 29.1 °F 30.3 in NNE 2 mph 3 mph 68 % 0 in
01:55 39.4 °F 29.7 °F 30.3 in NE 2 mph 3 mph 68 % 0 in
02:05 39.9 °F 30.2 °F 30.3 in NNE 1 mph 4 mph 68 % 0 in
02:15 40.5 °F 30.7 °F 30.3 in North 1 mph 2 mph 68 % 0 in
02:25 41 °F 30.9 °F 30.3 in NNE 3 mph 5 mph 67 % 0 in
02:35 42.1 °F 31.8 °F 30.3 in Calm   2 mph 67 % 0 in
02:45 42.8 °F 32.5 °F 30.3 in NE 1 mph 2 mph 67 % 0 in
02:55 43.3 °F 32.7 °F 30.3 in NE 1 mph 2 mph 66 % 0 in
03:05 44.1 °F 33.1 °F 30.3 in NNE 2 mph 3 mph 65 % 0 in
03:15 43.7 °F 32.4 °F 30.3 in NNE 3 mph 6 mph 64 % 0 in
03:25 44.1 °F 32.7 °F 30.3 in NNE 1 mph 5 mph 64 % 0 in
03:35 44.8 °F 33.3 °F 30.3 in NNE 2 mph 6 mph 64 % 0 in
03:45 45 °F 33.1 °F 30.3 in NE 3 mph 3 mph 63 % 0 in
03:55 46 °F 34.2 °F 30.3 in NE 2 mph 4 mph 63 % 0 in
04:10 46.4 °F 34.2 °F 30.3 in NE 3 mph 7 mph 62 % 0 in
04:20 46.9 °F 34.5 °F 30.3 in NNE 3 mph 3 mph 62 % 0 in
04:30 47.7 °F 34.9 °F 30.3 in NNE 2 mph 3 mph 61 % 0 in
10:38 48 °F 35.2 °F 30.3 in NNW 3.5 mph 3.5 mph 61 % 0 in
10:43 48.4 °F 35.4 °F 30.3 in NE 3.5 mph 3.5 mph 61 % 0 in
10:48 48 °F 34.9 °F 30.3 in ENE 4.6 mph 4.6 mph 60 % 0 in
10:53 48.7 °F 35.4 °F 30.3 in West 2.3 mph 2.3 mph 60 % 0 in
10:58 49.1 °F 35.8 °F 30.3 in NE 2.3 mph 2.3 mph 60 % 0 in
11:03 49.6 °F 36.3 °F 30.3 in NNE 3.8 mph 3.8 mph 60 % 0 in
11:08 49.3 °F 35.4 °F 30.3 in NNE 2.3 mph 2.3 mph 59 % 0 in
11:13 49.3 °F 35.4 °F 30.3 in NE 3.5 mph 3.5 mph 59 % 0 in
11:18 49.6 °F 35.4 °F 30.3 in ENE 2.6 mph 2.6 mph 58 % 0 in
11:23 49.6 °F 35.4 °F 30.3 in ESE 2.3 mph 2.3 mph 58 % 0 in
11:28 50.2 °F 36 °F 30.3 in NNE 2.4 mph 2.4 mph 58 % 0 in
11:33 51.1 °F 36.9 °F 30.3 in NNE 1.4 mph 1.4 mph 58 % 0 in
11:38 51.4 °F 37 °F 30.3 in NNE 2.3 mph 2.3 mph 58 % 0 in
11:43 51.3 °F 36.5 °F 30.3 in NNE 2.3 mph 2.3 mph 57 % 0 in
11:48 51.4 °F 36.7 °F 30.3 in ESE 3.5 mph 3.5 mph 57 % 0 in
11:53 52.2 °F 37.4 °F 30.3 in East 2.9 mph 2.9 mph 57 % 0 in
11:58 52.3 °F 37.6 °F 30.3 in NE 3.5 mph 3.5 mph 57 % 0 in
12:03 52.5 °F 37.8 °F 30.3 in NNE 2.6 mph 2.6 mph 57 % 0 in
12:08 53.1 °F 38.1 °F 30.3 in NNE 2.3 mph 2.3 mph 57 % 0 in
12:13 53.1 °F 37.8 °F 30.3 in NE 2.3 mph 2.3 mph 56 % 0 in
12:14 53.1 °F 37.8 °F 30.3 in NE 2.3 mph 2.3 mph 56 % 0 in
12:19 53.2 °F 37.9 °F 30.3 in SSE 2.3 mph 2.3 mph 56 % 0 in
12:24 53.8 °F 38.5 °F 30.3 in West 1.2 mph 1.2 mph 56 % 0 in
12:29 54.3 °F 38.8 °F 30.3 in NE 2.3 mph 2.3 mph 56 % 0 in
12:34 54.7 °F 39.4 °F 30.3 in NNE 2.3 mph 2.3 mph 56 % 0 in
12:39 54.9 °F 39.6 °F 30.3 in ENE 2.4 mph 2.4 mph 56 % 0 in
12:44 54.7 °F 38.5 °F 30.3 in ESE 4.6 mph 4.6 mph 54 % 0 in
12:49 54.9 °F 39 °F 30.3 in ENE 2.3 mph 2.3 mph 55 % 0 in
12:54 55.2 °F 39.4 °F 30.3 in East 2.3 mph 2.3 mph 55 % 0 in
12:59 55.4 °F 39.6 °F 30.3 in ENE 3.5 mph 3.5 mph 55 % 0 in
13:04 55.8 °F 39.7 °F 30.3 in ENE 3.5 mph 3.5 mph 55 % 0 in
13:09 55.8 °F 39.4 °F 30.3 in ENE 4.6 mph 4.6 mph 54 % 0 in
13:14 55.9 °F 39.6 °F 30.3 in NE 4.6 mph 4.6 mph 54 % 0 in
13:19 56.1 °F 39.7 °F 30.3 in East 3.5 mph 3.5 mph 54 % 0 in
13:24 56.5 °F 39.6 °F 30.3 in SE 3.5 mph 3.5 mph 53 % 0 in
13:29 57 °F 39.9 °F 30.3 in ENE 3.1 mph 3.1 mph 53 % 0 in
13:34 57.2 °F 40.3 °F 30.3 in ESE 2.3 mph 2.4 mph 53 % 0 in
13:39 57.4 °F 40.5 °F 30.3 in NNE 3.5 mph 3.5 mph 53 % 0 in
13:44 57.6 °F 40.5 °F 30.3 in NE 2.3 mph 2.3 mph 53 % 0 in
13:49 57.7 °F 40.6 °F 30.3 in NE 4.6 mph 4.6 mph 53 % 0 in
13:54 57.7 °F 40.6 °F 30.2 in ENE 4.6 mph 4.6 mph 53 % 0 in
13:59 57.7 °F 40.3 °F 30.2 in NNE 2.3 mph 2.3 mph 52 % 0 in
14:04 58.1 °F 40.6 °F 30.2 in North 2.6 mph 2.6 mph 52 % 0 in
14:09 58.5 °F 40.8 °F 30.3 in East 2.3 mph 2.3 mph 52 % 0 in
14:14 58.6 °F 41.2 °F 30.3 in East 2.3 mph 2.3 mph 52 % 0 in
14:19 58.5 °F 40.5 °F 30.3 in ENE 2.3 mph 2.4 mph 51 % 0 in
14:24 58.6 °F 41.2 °F 30.3 in ENE 2.3 mph 2.3 mph 52 % 0 in
14:29 58.6 °F 41.2 °F 30.3 in NNE 2.3 mph 2.3 mph 52 % 0 in
14:34 58.6 °F 41.2 °F 30.3 in WSW 3.5 mph 3.5 mph 52 % 0 in
14:39 58.8 °F 40.6 °F 30.3 in West 3.8 mph 3.8 mph 51 % 0 in
14:44 59 °F 40.8 °F 30.3 in WNW 4.9 mph 4.9 mph 51 % 0 in
14:49 59 °F 40.8 °F 30.3 in SW 4.6 mph 4.6 mph 51 % 0 in
14:54 58.8 °F 40.3 °F 30.3 in West 6.9 mph 6.9 mph 50 % 0 in
14:59 58.6 °F 39.6 °F 30.3 in WNW 5.8 mph 5.8 mph 49 % 0 in
15:04 58.5 °F 39.9 °F 30.3 in WNW 5.9 mph 5.9 mph 50 % 0 in
15:09 58.3 °F 38.7 °F 30.3 in NNE 6.9 mph 6.9 mph 48 % 0 in
15:14 58.1 °F 37.9 °F 30.3 in NW 6.9 mph 6.9 mph 47 % 0 in
15:19 57.9 °F 37.8 °F 30.3 in WSW 3.5 mph 3.5 mph 47 % 0 in
15:24 57.7 °F 37.6 °F 30.3 in WNW 6.9 mph 6.9 mph 47 % 0 in
15:29 57.7 °F 37.6 °F 30.3 in WSW 2.3 mph 2.3 mph 47 % 0 in
15:34 57.6 °F 37.6 °F 30.3 in West 6.9 mph 6.9 mph 47 % 0 in
15:39 57.4 °F 37.2 °F 30.3 in West 4.3 mph 4.3 mph 47 % 0 in
15:44 57 °F 37 °F 30.3 in WSW 3.5 mph 3.5 mph 47 % 0 in
15:49 56.8 °F 36.9 °F 30.3 in West 2.3 mph 2.3 mph 47 % 0 in
15:54 56.8 °F 36.9 °F 30.3 in West 2.3 mph 2.4 mph 47 % 0 in
15:59 56.7 °F 36.7 °F 30.3 in SW 4.6 mph 4.6 mph 47 % 0 in
16:04 56.7 °F 36.7 °F 30.3 in WSW 5.8 mph 5.8 mph 47 % 0 in
16:09 56.7 °F 36.7 °F 30.3 in West 2.9 mph   47 % 0 in
16:14 56.5 °F 36.5 °F 30.3 in North 2.3 mph 2.3 mph 47 % 0 in
16:19 56.3 °F 36.3 °F 30.3 in WNW 2.6 mph 2.6 mph 47 % 0 in
16:24 56.3 °F 36.3 °F 30.3 in NNW 2.3 mph 2.3 mph 47 % 0 in
16:29 56.1 °F 36.1 °F 30.3 in West 3.5 mph 3.5 mph 47 % 0 in
16:34 55.9 °F 36 °F 30.3 in WSW 2.3 mph 2.3 mph 47 % 0 in
16:39 55.8 °F 35.8 °F 30.3 in SW 2.6 mph 2.6 mph 47 % 0 in
16:44 55.8 °F 35.8 °F 30.3 in West 1.6 mph   47 % 0 in
16:49 55.6 °F 35.8 °F 30.3 in WSW 1.2 mph   47 % 0 in
16:54 55.4 °F 35.4 °F 30.3 in SW 2.6 mph 2.6 mph 47 % 0 in
16:59 55 °F 35.2 °F 30.3 in WSW 2.4 mph 2.4 mph 47 % 0 in
17:04 54.7 °F 35.4 °F 30.3 in WSW 2.4 mph 2.4 mph 48 % 0 in
17:09 54.3 °F 35.1 °F 30.3 in West 2.3 mph 2.3 mph 48 % 0 in
17:14 54.1 °F 34.9 °F 30.3 in WSW 2.2 mph 2.2 mph 48 % 0 in
17:19 54.1 °F 34.9 °F 30.3 in SW 1.2 mph   48 % 0 in
17:24 54 °F 34.7 °F 30.3 in SW 1.6 mph   48 % 0 in
17:29 53.6 °F 34.3 °F 30.3 in SW 2.3 mph 2.3 mph 48 % 0 in
17:34 53.2 °F 34 °F 30.3 in SW 2.4 mph 2.4 mph 48 % 0 in
17:39 53.1 °F 34.3 °F 30.3 in WSW 1.2 mph 1.4 mph 49 % 0 in
17:44 53.1 °F 34.3 °F 30.3 in SW 2.3 mph 2.4 mph 49 % 0 in
17:49 53.1 °F 34.3 °F 30.3 in WSW 2.3 mph 2.3 mph 49 % 0 in
17:54 53.1 °F 34.3 °F 30.3 in West 2.3 mph 2.3 mph 49 % 0 in
17:59 53.1 °F 34.3 °F 30.3 in WSW 2.3 mph 2.3 mph 49 % 0 in
18:04 53.1 °F 34 °F 30.3 in West 2.3 mph 2.3 mph 48 % 0 in
18:09 53.1 °F 34 °F 30.3 in West 1.2 mph 1.2 mph 48 % 0 in
18:14 52.9 °F 33.6 °F 30.3 in Calm     48 % 0 in
18:19 52.7 °F 34.2 °F 30.3 in Calm     49 % 0 in
18:24 52.5 °F 33.4 °F 30.3 in West 1.2 mph 1.2 mph 48 % 0 in
18:29 52.3 °F 33.6 °F 30.3 in Calm     49 % 0 in
18:34 52.2 °F 33.6 °F 30.3 in Calm     49 % 0 in
18:39 51.8 °F 33.3 °F 30.3 in Calm     49 % 0 in
18:40 51.8 °F 33.3 °F 30.3 in Calm     49 % 0 in
18:45 51.6 °F 33.1 °F 30.3 in Calm     49 % 0 in
18:50 51.6 °F 33.1 °F 30.3 in NE 1.6 mph 1.6 mph 49 % 0 in
18:55 51.8 °F 33.6 °F 30.3 in NE 1 mph 2 mph 50 % 0 in
19:00 52 °F 33.4 °F 30.3 in ENE 1.2 mph   49 % 0 in
19:05 52 °F 34 °F 30.3 in Calm     50 % 0 in
19:10 51.6 °F 33.6 °F 30.3 in Calm     50 % 0 in
19:15 51.3 °F 33.3 °F 30.3 in West 2.3 mph 2.3 mph 50 % 0 in
19:20 51.3 °F 33.3 °F 30.3 in Calm     50 % 0 in
19:25 51.1 °F 33.1 °F 30.3 in West 1.2 mph 1.2 mph 50 % 0 in
19:30 51.1 °F 33.1 °F 30.3 in Calm     50 % 0 in
19:35 51.1 °F 33.6 °F 30.3 in NE 1.4 mph   51 % 0 in
19:40 50.7 °F 33.3 °F 30.3 in ENE 2.3 mph 2.3 mph 51 % 0 in
19:45 50.5 °F 33.1 °F 30.3 in Calm     51 % 0 in
19:50 50.7 °F 33.3 °F 30.3 in Calm     51 % 0 in
19:55 50.7 °F 33.3 °F 30.3 in Calm     51 % 0 in
20:00 50.7 °F 33.3 °F 30.3 in Calm     51 % 0 in
20:05 50.5 °F 33.1 °F 30.3 in Calm     51 % 0 in
20:10 50 °F 32.5 °F 30.3 in ENE 0.9 mph   51 % 0 in
20:15 50 °F 32.5 °F 30.3 in ENE 1.2 mph 1.2 mph 51 % 0 in
20:20 50 °F 32.5 °F 30.3 in Calm     51 % 0 in
20:25 50 °F 33.1 °F 30.3 in Calm     52 % 0 in
20:30 49.8 °F 32.9 °F 30.3 in ENE 1.2 mph 1.2 mph 52 % 0 in
20:35 49.8 °F 32.9 °F 30.3 in Calm     52 % 0 in
20:40 49.8 °F 32.9 °F 30.3 in WSW 3.5 mph 3.5 mph 52 % 0 in
20:45 49.6 °F 32.7 °F 30.3 in WSW 2.3 mph 2.3 mph 52 % 0 in
20:50 49.8 °F 32.9 °F 30.3 in WSW 2.4 mph 2.4 mph 52 % 0 in
20:55 49.8 °F 32.9 °F 30.3 in West 2.4 mph 2.4 mph 52 % 0 in
21:00 49.6 °F 32.7 °F 30.3 in West 2.3 mph 2.3 mph 52 % 0 in
21:05 49.5 °F 32.5 °F 30.3 in West 1.2 mph 1.2 mph 52 % 0 in
21:10 49.6 °F 32.7 °F 30.3 in West 1.2 mph 1.2 mph 52 % 0 in
21:15 49.8 °F 32.9 °F 30.3 in West 1.2 mph 1.2 mph 52 % 0 in
21:20 49.8 °F 32.9 °F 30.3 in Calm     52 % 0 in
21:25 49.1 °F 32.2 °F 30.3 in ENE 1.6 mph 1.6 mph 52 % 0 in
21:30 48.7 °F 32.4 °F 30.3 in ENE 1.2 mph 1.2 mph 53 % 0 in
21:35 48.4 °F 32 °F 30.3 in East 1.2 mph 1.2 mph 53 % 0 in
21:40 48.2 °F 32.4 °F 30.3 in Calm     54 % 0 in
21:45 48 °F 32.2 °F 30.3 in Calm     54 % 0 in
21:50 47.7 °F 32.4 °F 30.3 in East 1.2 mph 1.2 mph 55 % 0 in
21:55 47.5 °F 32.2 °F 30.3 in ENE 2.3 mph 2.3 mph 55 % 0 in
22:00 47.3 °F 32.4 °F 30.3 in Calm     56 % 0 in
22:05 47.3 °F 32.4 °F 30.3 in Calm     56 % 0 in
22:10 47.3 °F 32.4 °F 30.3 in Calm     56 % 0 in
22:15 47.3 °F 32.4 °F 30.3 in NE 1.4 mph 1.4 mph 56 % 0 in
22:20 47.1 °F 32.2 °F 30.3 in NE 1.4 mph   56 % 0 in
22:25 46.8 °F 32.4 °F 30.3 in Calm     57 % 0 in
22:30 46.8 °F 32.4 °F 30.3 in Calm     57 % 0 in
22:35 46.8 °F 32.4 °F 30.3 in WNW 1.2 mph 1.4 mph 57 % 0 in
22:40 46.9 °F 32.5 °F 30.3 in WNW 1.2 mph   57 % 0 in
22:45 46.6 °F 32.2 °F 30.3 in NE 3.5 mph 3.5 mph 57 % 0 in
22:50 46 °F 32.2 °F 30.3 in NE 1.2 mph   58 % 0 in
22:51 46.2 °F 32.2 °F 30.3 in NE 1.2 mph 1.2 mph 58 % 0 in
22:56 46.2 °F 32.2 °F 30.3 in NE 1.4 mph 1.4 mph 58 % 0 in
23:01 46.2 °F 32.2 °F 30.3 in NE 1.2 mph   58 % 0 in
23:06 46 °F 32.2 °F 30.3 in WNW 2.3 mph 2.3 mph 58 % 0 in
23:11 45.9 °F 32.4 °F 30.3 in WNW 1.2 mph   59 % 0 in
23:16 45.7 °F 32.2 °F 30.3 in West 1.4 mph 1.4 mph 59 % 0 in
23:21 45.5 °F 32 °F 30.3 in WSW 2.3 mph 2.3 mph 59 % 0 in
23:26 45 °F 31.5 °F 30.3 in WSW 2.3 mph 2.3 mph 59 % 0 in
23:31 45 °F 31.8 °F 30.3 in WSW 2.3 mph 2.3 mph 60 % 0 in
23:36 44.6 °F 31.6 °F 30.3 in SW 1.2 mph   60 % 0 in
23:41 44.6 °F 31.6 °F 30.3 in SW 1.4 mph 1.4 mph 60 % 0 in
23:46 44.6 °F 31.6 °F 30.3 in SW 2.3 mph 2.3 mph 60 % 0 in
23:51 44.8 °F 31.6 °F 30.3 in West 1.2 mph 1.2 mph 60 % 0 in
23:56 45 °F 31.8 °F 30.3 in West 1.2 mph   60 % 0 in
Meteo Sesrovires
Elogis d' Weather Underground - 3.5 mb

Guio original per  Jim McMurry - jmcmurry@mwt.net Adaptat per a la plantilla per  Wim van der Kuil - Leuven-Template.eu

Trobareu la nostra informacio del temps tambe a:

Weather Underground

AWEKAS